North Oaks, Minnesota
Current Conditions -  °F | °C
As of 9:14 PM on Saturday 20 Dec 2014 (Local Time) from KANE Reporting Station
Overcast Overcast  
Wind Chill: 25°   Ceiling: 1200
Heat Index: 34°   Visibility: 10mi
Dew Point: 30°   Wind: 13mph
Humidity: 87%   Direction: 170°S
Pressure: 30.09"   Gusts: 17mph
Location:  45.0841°N, 93.0819°W
Report Text: KANE 210314Z AUTO 17011G15KT 10SM OVC012 01/M01 A3009 RMK AO2
Loading
Personal Weather Stations






























Interactive Weather Map New forecast layout! Learn more

10-Day Weather Forecast

Advertisements
Track Severe Weather on mobile